createdAt,value
2022-12-26T00:02:14.101Z,2.80
2022-12-26T00:05:17.096Z,2.70
2022-12-26T00:08:20.236Z,3.00
2022-12-26T00:11:23.524Z,2.78
2022-12-26T00:14:26.628Z,2.40
2022-12-26T00:17:29.480Z,2.90
2022-12-26T00:20:32.107Z,2.92
2022-12-26T00:23:34.760Z,3.15
2022-12-26T00:26:37.407Z,3.00
2022-12-26T00:29:40.448Z,3.00
2022-12-26T00:32:43.031Z,3.45
2022-12-26T00:35:46.166Z,3.25
2022-12-26T00:38:49.308Z,3.78
2022-12-26T00:41:52.690Z,3.00
2022-12-26T00:44:55.422Z,3.58
2022-12-26T00:47:58.129Z,3.45
2022-12-26T00:51:00.362Z,3.15
2022-12-26T00:54:03.252Z,3.95
2022-12-26T00:57:06.345Z,4.00
2022-12-26T01:00:09.315Z,4.20
2022-12-26T01:03:12.243Z,3.60
2022-12-26T01:06:14.888Z,3.83
2022-12-26T01:09:17.418Z,3.60
2022-12-26T01:12:20.660Z,3.72
2022-12-26T01:15:23.590Z,4.22
2022-12-26T01:18:26.277Z,4.10
2022-12-26T01:21:29.992Z,4.15
2022-12-26T01:24:33.875Z,4.35
2022-12-26T01:27:36.852Z,4.15
2022-12-26T01:30:39.387Z,4.07
2022-12-26T01:33:42.001Z,4.10
2022-12-26T01:36:44.612Z,4.88
2022-12-26T01:39:46.919Z,4.53
2022-12-26T01:42:49.669Z,5.75
2022-12-26T01:45:52.666Z,4.55
2022-12-26T01:48:55.410Z,4.70
2022-12-26T01:51:57.514Z,5.18
2022-12-26T01:54:59.686Z,5.38
2022-12-26T01:58:02.339Z,5.20
2022-12-26T02:01:04.610Z,5.35
2022-12-26T02:04:07.757Z,4.75
2022-12-26T02:07:10.147Z,4.20
2022-12-26T02:10:12.990Z,5.13
2022-12-26T02:13:15.830Z,4.90
2022-12-26T02:16:18.794Z,5.28
2022-12-26T02:19:21.475Z,5.00
2022-12-26T02:22:24.181Z,5.07
2022-12-26T02:25:27.114Z,4.57
2022-12-26T02:28:30.220Z,4.95
2022-12-26T02:31:33.435Z,4.72
2022-12-26T02:34:36.005Z,4.50
2022-12-26T02:37:38.192Z,4.63
2022-12-26T02:40:40.355Z,3.75
2022-12-26T02:43:43.235Z,4.70
2022-12-26T02:46:45.885Z,4.20
2022-12-26T02:49:48.649Z,4.38
2022-12-26T02:52:51.965Z,4.63
2022-12-26T02:55:54.611Z,4.50
2022-12-26T02:58:57.606Z,4.22
2022-12-26T03:02:00.600Z,4.30
2022-12-26T03:05:03.280Z,4.32
2022-12-26T03:08:06.623Z,4.50
2022-12-26T03:11:09.396Z,4.63
2022-12-26T03:14:12.349Z,5.50
2022-12-26T03:17:15.223Z,4.25
2022-12-26T03:20:18.079Z,5.03
2022-12-26T03:23:20.904Z,4.90
2022-12-26T03:26:23.717Z,4.63
2022-12-26T03:29:26.857Z,4.57
2022-12-26T03:32:30.000Z,4.93
2022-12-26T03:35:32.746Z,5.60
2022-12-26T03:38:35.334Z,5.32
2022-12-26T03:41:37.462Z,5.05
2022-12-26T03:44:40.081Z,4.50
2022-12-26T03:47:43.046Z,5.82
2022-12-26T03:50:45.644Z,5.35
2022-12-26T03:53:48.569Z,4.53
2022-12-26T03:56:51.659Z,5.68
2022-12-26T03:59:54.546Z,5.57
2022-12-26T04:02:57.205Z,5.20
2022-12-26T04:05:59.439Z,4.63
2022-12-26T04:09:02.082Z,4.85
2022-12-26T04:12:04.673Z,4.90
2022-12-26T04:15:06.857Z,5.03
2022-12-26T04:18:09.026Z,5.00
2022-12-26T04:21:11.163Z,5.07
2022-12-26T04:24:13.651Z,5.20
2022-12-26T04:27:16.220Z,5.18
2022-12-26T04:30:19.011Z,4.82
2022-12-26T04:33:22.376Z,5.15
2022-12-26T04:36:25.679Z,5.53
2022-12-26T04:39:28.073Z,5.10
2022-12-26T04:42:31.033Z,5.45
2022-12-26T04:45:33.972Z,4.95
2022-12-26T04:48:36.163Z,5.88
2022-12-26T04:51:38.843Z,5.40
2022-12-26T04:54:41.352Z,5.30
2022-12-26T04:57:44.123Z,5.35
2022-12-26T05:00:47.337Z,5.07
2022-12-26T05:03:50.387Z,6.60
2022-12-26T05:06:53.087Z,5.43
2022-12-26T05:09:56.116Z,5.75
2022-12-26T05:12:58.991Z,7.07
2022-12-26T05:16:01.634Z,5.95
2022-12-26T05:19:04.296Z,5.85
2022-12-26T05:22:07.277Z,5.38
2022-12-26T05:25:10.284Z,5.85
2022-12-26T05:28:13.332Z,6.30
2022-12-26T05:31:16.772Z,6.32
2022-12-26T05:34:19.073Z,6.53
2022-12-26T05:37:21.928Z,6.25
2022-12-26T05:40:25.387Z,5.72
2022-12-26T05:43:27.998Z,5.43
2022-12-26T05:46:30.721Z,4.88
2022-12-26T05:49:33.686Z,4.72
2022-12-26T05:52:36.520Z,5.00
2022-12-26T05:55:39.885Z,4.50
2022-12-26T05:58:42.473Z,4.80
2022-12-26T06:01:44.793Z,4.07
2022-12-26T06:04:47.869Z,4.30
2022-12-26T06:07:50.717Z,4.30
2022-12-26T06:10:53.818Z,4.32
2022-12-26T06:13:56.570Z,4.28
2022-12-26T06:16:59.229Z,3.60
2022-12-26T06:20:01.862Z,3.92
2022-12-26T06:23:04.472Z,3.47
2022-12-26T06:26:07.270Z,3.70
2022-12-26T06:29:10.253Z,3.67
2022-12-26T06:32:13.272Z,3.65
2022-12-26T06:35:16.096Z,3.50
2022-12-26T06:38:18.566Z,3.78
2022-12-26T06:41:20.809Z,3.40
2022-12-26T06:44:23.773Z,3.20
2022-12-26T06:47:27.029Z,3.70
2022-12-26T06:50:29.891Z,3.42
2022-12-26T06:53:32.940Z,3.05
2022-12-26T06:56:36.583Z,3.22
2022-12-26T06:59:39.285Z,3.70
2022-12-26T07:02:42.291Z,3.10
2022-12-26T07:05:44.906Z,3.25
2022-12-26T07:08:48.085Z,3.00
2022-12-26T07:11:51.304Z,3.78
2022-12-26T07:14:58.075Z,4.47
2022-12-26T07:18:03.878Z,3.42
2022-12-26T07:21:06.810Z,2.92
2022-12-26T07:24:09.557Z,3.58
2022-12-26T07:27:12.483Z,3.40
2022-12-26T07:30:15.438Z,3.13
2022-12-26T07:33:18.204Z,2.88
2022-12-26T07:36:21.375Z,3.47
2022-12-26T07:39:23.675Z,3.00
2022-12-26T07:42:27.006Z,2.80
2022-12-26T07:45:29.965Z,3.72
2022-12-26T07:48:32.169Z,2.85
2022-12-26T07:51:34.301Z,3.28
2022-12-26T07:54:36.967Z,3.05
2022-12-26T07:57:48.683Z,3.67
2022-12-26T08:00:52.308Z,2.97
2022-12-26T08:03:54.893Z,3.22
2022-12-26T08:06:58.220Z,2.80
2022-12-26T08:10:01.219Z,3.33
2022-12-26T08:13:04.093Z,2.20
2022-12-26T08:16:07.130Z,2.75
2022-12-26T08:19:10.161Z,2.42
2022-12-26T08:22:13.070Z,2.92
2022-12-26T08:25:18.377Z,2.20
2022-12-26T08:28:23.912Z,2.10
2022-12-26T08:34:28.366Z,2.33
2022-12-26T08:37:31.321Z,2.20
2022-12-26T08:40:43.628Z,2.28
2022-12-26T08:47:09.669Z,1.90
2022-12-26T08:50:12.422Z,2.42
2022-12-26T08:53:14.851Z,2.45
2022-12-26T08:56:17.709Z,2.20
2022-12-26T08:59:20.311Z,2.55
2022-12-26T09:02:23.053Z,2.83
2022-12-26T09:05:25.599Z,2.25
2022-12-26T09:08:28.259Z,2.17
2022-12-26T09:11:31.149Z,1.80
2022-12-26T09:14:35.096Z,2.40
2022-12-26T09:17:38.207Z,3.42
2022-12-26T09:20:41.069Z,1.88
2022-12-26T09:23:43.638Z,2.00
2022-12-26T09:26:46.727Z,2.53
2022-12-26T09:29:49.177Z,2.10
2022-12-26T09:32:51.751Z,1.88
2022-12-26T09:35:57.061Z,1.80
2022-12-26T09:39:05.298Z,2.35
2022-12-26T09:42:07.801Z,3.22
2022-12-26T09:45:10.150Z,2.20
2022-12-26T09:48:13.586Z,2.53
2022-12-26T09:51:16.381Z,2.22
2022-12-26T09:54:18.667Z,3.25
2022-12-26T09:57:21.377Z,2.65
2022-12-26T10:00:23.983Z,1.27
2022-12-26T10:03:26.599Z,1.90
2022-12-26T10:06:28.793Z,1.80
2022-12-26T10:09:33.340Z,1.92
2022-12-26T10:12:35.969Z,2.22
2022-12-26T10:15:38.680Z,2.50
2022-12-26T10:18:42.131Z,1.92
2022-12-26T10:21:44.363Z,2.25
2022-12-26T10:24:47.107Z,2.17
2022-12-26T10:27:52.479Z,1.70
2022-12-26T10:30:55.365Z,2.25
2022-12-26T10:33:57.969Z,2.15
2022-12-26T10:37:00.204Z,2.05
2022-12-26T10:40:02.956Z,3.10
2022-12-26T10:43:05.097Z,2.40
2022-12-26T10:46:08.157Z,2.67
2022-12-26T10:49:11.306Z,2.97
2022-12-26T10:52:14.149Z,2.35
2022-12-26T10:55:28.895Z,3.13
2022-12-26T10:58:34.416Z,2.58
2022-12-26T11:01:38.285Z,2.22
2022-12-26T11:05:15.591Z,3.35
2022-12-26T11:08:03.648Z,3.03
2022-12-26T11:11:06.188Z,2.47
2022-12-26T11:14:10.665Z,2.53
2022-12-26T11:17:13.290Z,2.50
2022-12-26T11:20:15.641Z,2.30
2022-12-26T11:23:18.253Z,3.83
2022-12-26T11:26:21.051Z,1.95
2022-12-26T11:29:24.439Z,2.63
2022-12-26T11:32:28.294Z,2.58
2022-12-26T11:35:31.119Z,3.05
2022-12-26T11:38:36.198Z,2.85
2022-12-26T11:41:41.738Z,2.03
2022-12-26T11:44:45.738Z,3.70
2022-12-26T11:47:48.124Z,4.10
2022-12-26T11:50:50.807Z,2.85
2022-12-26T11:53:53.705Z,2.83
2022-12-26T11:56:56.946Z,2.78
2022-12-26T12:00:00.087Z,2.00
2022-12-26T12:03:04.015Z,3.70
2022-12-26T12:06:07.135Z,2.65
2022-12-26T12:09:10.494Z,3.08
2022-12-26T12:12:12.660Z,2.28
2022-12-26T12:15:15.555Z,2.20
2022-12-26T12:18:18.605Z,3.55
2022-12-26T12:21:21.188Z,2.75
2022-12-26T12:24:24.597Z,2.85
2022-12-26T12:27:27.165Z,2.55
2022-12-26T12:30:30.086Z,3.95
2022-12-26T12:33:32.784Z,2.92
2022-12-26T12:36:35.480Z,3.05
2022-12-26T12:39:38.233Z,2.60
2022-12-26T12:42:41.602Z,2.83
2022-12-26T12:45:44.569Z,2.38
2022-12-26T12:48:47.345Z,2.50
2022-12-26T12:51:50.297Z,1.90
2022-12-26T12:54:52.737Z,2.00
2022-12-26T12:57:55.373Z,1.83
2022-12-26T13:00:57.948Z,3.35
2022-12-26T13:04:00.715Z,2.58
2022-12-26T13:07:02.908Z,2.65
2022-12-26T13:10:05.891Z,1.55
2022-12-26T13:13:08.893Z,2.00
2022-12-26T13:16:11.739Z,1.92
2022-12-26T13:19:15.546Z,2.58
2022-12-26T13:22:18.311Z,3.30
2022-12-26T13:25:21.689Z,2.97
2022-12-26T13:28:24.338Z,2.40
2022-12-26T13:31:26.608Z,1.20
2022-12-26T13:34:29.300Z,2.05
2022-12-26T13:37:31.510Z,1.75
2022-12-26T13:40:34.124Z,3.30
2022-12-26T13:43:36.838Z,1.58
2022-12-26T13:46:39.432Z,3.38
2022-12-26T13:49:42.341Z,1.63
2022-12-26T13:52:45.109Z,3.55
2022-12-26T13:55:48.311Z,2.50
2022-12-26T13:58:51.011Z,2.63
2022-12-26T14:01:55.714Z,1.23
2022-12-26T14:04:58.931Z,2.13
2022-12-26T14:08:01.508Z,2.03
2022-12-26T14:11:03.573Z,2.10
2022-12-26T14:14:05.853Z,2.03
2022-12-26T14:17:09.164Z,1.35
2022-12-26T14:20:12.718Z,1.52
2022-12-26T14:23:15.401Z,1.77
2022-12-26T14:26:18.065Z,2.35
2022-12-26T14:29:20.647Z,1.17
2022-12-26T14:32:23.286Z,1.48
2022-12-26T14:35:25.869Z,2.25
2022-12-26T14:38:28.463Z,1.90
2022-12-26T14:41:30.721Z,1.55
2022-12-26T14:44:33.468Z,3.35
2022-12-26T14:47:36.041Z,1.52
2022-12-26T14:50:39.074Z,1.70
2022-12-26T14:53:41.614Z,2.15
2022-12-26T14:56:44.176Z,2.05
2022-12-26T14:59:46.740Z,2.53
2022-12-26T15:02:49.067Z,1.67
2022-12-26T15:05:51.727Z,2.35
2022-12-26T15:08:54.811Z,1.30
2022-12-26T15:11:57.858Z,1.80
2022-12-26T15:15:00.436Z,1.98
2022-12-26T15:18:03.309Z,1.98
2022-12-26T15:21:05.987Z,1.85
2022-12-26T15:24:08.718Z,2.55
2022-12-26T15:27:11.853Z,1.52
2022-12-26T15:30:14.387Z,1.75
2022-12-26T15:33:17.319Z,2.55
2022-12-26T15:36:19.447Z,1.90
2022-12-26T15:39:21.864Z,1.88
2022-12-26T15:42:24.683Z,2.58
2022-12-26T15:45:28.583Z,2.15
2022-12-26T15:48:32.062Z,1.77
2022-12-26T15:51:35.101Z,1.67
2022-12-26T15:54:37.790Z,1.40
2022-12-26T15:57:40.381Z,2.40
2022-12-26T16:00:43.020Z,1.67
2022-12-26T16:03:45.394Z,1.38
2022-12-26T16:06:47.960Z,2.25
2022-12-26T16:09:50.495Z,2.38
2022-12-26T16:12:53.191Z,2.38
2022-12-26T16:15:55.923Z,1.92
2022-12-26T16:18:58.207Z,1.55
2022-12-26T16:22:00.788Z,1.83
2022-12-26T16:25:02.882Z,1.70
2022-12-26T16:28:05.742Z,3.25
2022-12-26T16:31:08.541Z,2.15
2022-12-26T16:34:11.390Z,1.67
2022-12-26T16:37:14.223Z,2.83
2022-12-26T16:40:16.394Z,2.20
2022-12-26T16:43:18.668Z,1.75
2022-12-26T16:46:21.867Z,1.95
2022-12-26T16:49:24.318Z,2.20
2022-12-26T16:52:27.007Z,3.95
2022-12-26T16:55:29.358Z,2.38
2022-12-26T16:58:32.029Z,2.78
2022-12-26T17:01:34.862Z,2.55
2022-12-26T17:04:38.598Z,1.92
2022-12-26T17:07:41.810Z,2.33
2022-12-26T17:10:45.031Z,2.10
2022-12-26T17:13:47.816Z,2.83
2022-12-26T17:16:50.164Z,2.35
2022-12-26T17:19:54.368Z,2.10
2022-12-26T17:22:57.851Z,1.75
2022-12-26T17:26:00.702Z,2.60
2022-12-26T17:29:03.420Z,1.63
2022-12-26T17:32:05.713Z,1.83
2022-12-26T17:35:08.269Z,2.15
2022-12-26T17:38:10.856Z,2.22
2022-12-26T17:41:13.347Z,2.47
2022-12-26T17:44:16.662Z,1.95
2022-12-26T17:47:20.523Z,2.10
2022-12-26T17:50:22.945Z,3.00
2022-12-26T17:53:26.074Z,2.75
2022-12-26T17:56:29.405Z,2.25
2022-12-26T17:59:32.196Z,1.73
2022-12-26T18:02:34.508Z,3.15
2022-12-26T18:05:37.173Z,2.53
2022-12-26T18:08:40.066Z,3.13
2022-12-26T18:11:42.513Z,3.15
2022-12-26T18:14:45.440Z,2.15
2022-12-26T18:17:48.249Z,2.35
2022-12-26T18:20:50.135Z,1.83
2022-12-26T18:23:53.009Z,2.10
2022-12-26T18:26:55.663Z,2.15
2022-12-26T18:29:58.081Z,2.30
2022-12-26T18:33:00.771Z,2.22
2022-12-26T18:36:07.418Z,1.52
2022-12-26T18:39:10.259Z,1.88
2022-12-26T18:42:13.276Z,1.45
2022-12-26T18:45:16.450Z,2.50
2022-12-26T18:48:19.509Z,3.42
2022-12-26T18:51:21.686Z,2.03
2022-12-26T18:54:24.682Z,1.52
2022-12-26T18:57:27.969Z,3.55
2022-12-26T19:00:30.963Z,3.78
2022-12-26T19:03:34.300Z,2.90
2022-12-26T19:06:37.848Z,2.95
2022-12-26T19:09:40.769Z,3.13
2022-12-26T19:12:43.221Z,2.80
2022-12-26T19:15:45.832Z,2.58
2022-12-26T19:18:48.817Z,2.42
2022-12-26T19:21:51.832Z,3.15
2022-12-26T19:24:55.648Z,2.03
2022-12-26T19:27:58.597Z,2.38
2022-12-26T19:31:00.780Z,2.95
2022-12-26T19:34:02.995Z,2.28
2022-12-26T19:37:05.605Z,2.95
2022-12-26T19:40:08.577Z,1.83
2022-12-26T19:43:11.455Z,3.13
2022-12-26T19:46:13.907Z,3.05
2022-12-26T19:49:16.228Z,3.35
2022-12-26T19:52:18.969Z,2.08
2022-12-26T19:55:22.260Z,2.38
2022-12-26T19:58:25.510Z,2.20
2022-12-26T20:01:28.050Z,3.05
2022-12-26T20:04:30.983Z,2.92
2022-12-26T20:07:34.083Z,3.60
2022-12-26T20:10:36.479Z,3.80
2022-12-26T20:13:38.692Z,2.53
2022-12-26T20:20:03.816Z,2.97
2022-12-26T20:23:06.964Z,3.05
2022-12-26T20:26:09.998Z,3.45
2022-12-26T20:29:13.016Z,4.25
2022-12-26T20:32:15.814Z,2.92
2022-12-26T20:35:18.654Z,3.53
2022-12-26T20:38:21.585Z,2.85
2022-12-26T20:41:24.491Z,4.20
2022-12-26T20:44:27.328Z,3.45
2022-12-26T20:47:30.359Z,4.03
2022-12-26T20:50:33.580Z,2.60
2022-12-26T20:53:36.833Z,2.15
2022-12-26T20:56:40.311Z,2.10
2022-12-26T20:59:44.132Z,2.63
2022-12-26T21:02:48.323Z,1.60
2022-12-26T21:05:51.570Z,3.67
2022-12-26T21:08:54.206Z,2.53
2022-12-26T21:11:56.339Z,3.28
2022-12-26T21:14:58.514Z,2.65
2022-12-26T21:18:01.128Z,2.65
2022-12-26T21:21:04.041Z,3.65
2022-12-26T21:24:06.449Z,2.47
2022-12-26T21:27:09.126Z,3.53
2022-12-26T21:30:12.168Z,2.60
2022-12-26T21:33:15.113Z,2.42
2022-12-26T21:36:18.317Z,2.97
2022-12-26T21:39:21.849Z,2.88
2022-12-26T21:42:24.961Z,2.78
2022-12-26T21:45:27.431Z,2.92
2022-12-26T21:48:30.167Z,4.20
2022-12-26T21:51:33.212Z,3.78
2022-12-26T21:54:35.700Z,2.63
2022-12-26T21:57:38.154Z,3.78
2022-12-26T22:00:41.449Z,3.95
2022-12-26T22:03:45.023Z,3.63
2022-12-26T22:06:47.343Z,3.05
2022-12-26T22:09:50.113Z,3.33
2022-12-26T22:12:52.270Z,3.00
2022-12-26T22:15:54.513Z,3.38
2022-12-26T22:18:57.152Z,3.55
2022-12-26T22:21:59.433Z,3.50
2022-12-26T22:25:02.115Z,2.40
2022-12-26T22:28:05.202Z,3.22
2022-12-26T22:31:08.170Z,3.10
2022-12-26T22:34:10.394Z,2.63
2022-12-26T22:37:12.970Z,3.38
2022-12-26T22:40:15.813Z,3.13
2022-12-26T22:43:19.023Z,2.63
2022-12-26T22:46:21.956Z,2.72
2022-12-26T22:49:25.301Z,2.60
2022-12-26T22:52:28.044Z,3.50
2022-12-26T22:55:30.479Z,3.65
2022-12-26T22:58:33.127Z,2.65
2022-12-26T23:01:36.715Z,4.13
2022-12-26T23:04:39.386Z,3.35
2022-12-26T23:07:42.160Z,3.22
2022-12-26T23:10:44.583Z,3.00
2022-12-26T23:13:46.947Z,4.32
2022-12-26T23:16:49.587Z,2.55
2022-12-26T23:19:52.171Z,3.72
2022-12-26T23:22:55.069Z,2.97
2022-12-26T23:25:58.023Z,3.38
2022-12-26T23:29:01.282Z,3.13
2022-12-26T23:32:03.733Z,3.15
2022-12-26T23:35:06.179Z,3.67
2022-12-26T23:38:09.550Z,3.20
2022-12-26T23:41:12.480Z,3.38
2022-12-26T23:44:14.880Z,2.78
2022-12-26T23:47:17.120Z,3.47
2022-12-26T23:50:20.176Z,3.80
2022-12-26T23:53:22.599Z,3.03
2022-12-26T23:56:25.571Z,3.42
2022-12-26T23:59:28.488Z,2.80
